sensor_id;sensor_type;location;lat;lon;timestamp;P1;durP1;ratioP1;P2;durP2;ratioP2
80891;SDS011;70343;51.530;5.050;2023-11-19T00:01:32;24.67;;;12.50;;
80891;SDS011;70343;51.530;5.050;2023-11-19T00:03:58;22.42;;;12.80;;
80891;SDS011;70343;51.530;5.050;2023-11-19T00:06:24;18.85;;;11.55;;
80891;SDS011;70343;51.530;5.050;2023-11-19T00:08:50;22.73;;;11.90;;
80891;SDS011;70343;51.530;5.050;2023-11-19T00:11:16;20.55;;;11.50;;
80891;SDS011;70343;51.530;5.050;2023-11-19T00:13:42;19.80;;;11.10;;
80891;SDS011;70343;51.530;5.050;2023-11-19T00:16:07;21.20;;;10.55;;
80891;SDS011;70343;51.530;5.050;2023-11-19T00:18:35;20.92;;;10.52;;
80891;SDS011;70343;51.530;5.050;2023-11-19T00:21:01;21.98;;;9.82;;
80891;SDS011;70343;51.530;5.050;2023-11-19T00:23:27;22.02;;;10.23;;
80891;SDS011;70343;51.530;5.050;2023-11-19T00:25:53;20.45;;;10.73;;
80891;SDS011;70343;51.530;5.050;2023-11-19T00:28:19;21.98;;;9.52;;
80891;SDS011;70343;51.530;5.050;2023-11-19T00:30:44;21.77;;;10.13;;
80891;SDS011;70343;51.530;5.050;2023-11-19T00:33:10;17.05;;;9.63;;
80891;SDS011;70343;51.530;5.050;2023-11-19T00:35:37;12.68;;;7.63;;
80891;SDS011;70343;51.530;5.050;2023-11-19T00:38:02;11.55;;;7.68;;
80891;SDS011;70343;51.530;5.050;2023-11-19T00:40:29;16.42;;;8.60;;
80891;SDS011;70343;51.530;5.050;2023-11-19T00:42:55;21.85;;;7.63;;
80891;SDS011;70343;51.530;5.050;2023-11-19T00:45:20;18.92;;;7.10;;
80891;SDS011;70343;51.530;5.050;2023-11-19T00:47:46;19.85;;;7.35;;
80891;SDS011;70343;51.530;5.050;2023-11-19T00:50:12;13.75;;;5.78;;
80891;SDS011;70343;51.530;5.050;2023-11-19T00:52:38;17.20;;;6.25;;
80891;SDS011;70343;51.530;5.050;2023-11-19T00:55:04;19.17;;;5.82;;
80891;SDS011;70343;51.530;5.050;2023-11-19T00:57:31;19.55;;;5.63;;
80891;SDS011;70343;51.530;5.050;2023-11-19T00:59:57;16.38;;;4.72;;
80891;SDS011;70343;51.530;5.050;2023-11-19T01:02:24;15.70;;;5.60;;
80891;SDS011;70343;51.530;5.050;2023-11-19T01:04:50;18.55;;;6.35;;
80891;SDS011;70343;51.530;5.050;2023-11-19T01:07:15;25.05;;;6.15;;
80891;SDS011;70343;51.530;5.050;2023-11-19T01:09:41;14.32;;;4.82;;
80891;SDS011;70343;51.530;5.050;2023-11-19T01:12:07;15.95;;;5.63;;
80891;SDS011;70343;51.530;5.050;2023-11-19T01:14:34;15.43;;;4.75;;
80891;SDS011;70343;51.530;5.050;2023-11-19T01:17:00;16.85;;;5.10;;
80891;SDS011;70343;51.530;5.050;2023-11-19T01:19:26;21.08;;;5.20;;
80891;SDS011;70343;51.530;5.050;2023-11-19T01:21:53;16.08;;;4.70;;
80891;SDS011;70343;51.530;5.050;2023-11-19T01:24:19;13.63;;;5.18;;
80891;SDS011;70343;51.530;5.050;2023-11-19T01:26:45;13.75;;;4.97;;
80891;SDS011;70343;51.530;5.050;2023-11-19T01:29:14;16.60;;;5.18;;
80891;SDS011;70343;51.530;5.050;2023-11-19T01:31:40;17.63;;;5.28;;
80891;SDS011;70343;51.530;5.050;2023-11-19T01:34:06;18.40;;;4.53;;
80891;SDS011;70343;51.530;5.050;2023-11-19T01:36:32;21.20;;;5.03;;
80891;SDS011;70343;51.530;5.050;2023-11-19T01:38:57;18.50;;;5.30;;
80891;SDS011;70343;51.530;5.050;2023-11-19T01:41:23;18.15;;;5.20;;
80891;SDS011;70343;51.530;5.050;2023-11-19T01:43:50;11.38;;;4.70;;
80891;SDS011;70343;51.530;5.050;2023-11-19T01:46:15;14.73;;;4.35;;
80891;SDS011;70343;51.530;5.050;2023-11-19T01:48:45;24.13;;;5.63;;
80891;SDS011;70343;51.530;5.050;2023-11-19T01:51:12;12.07;;;4.70;;
80891;SDS011;70343;51.530;5.050;2023-11-19T01:53:38;19.48;;;5.30;;
80891;SDS011;70343;51.530;5.050;2023-11-19T01:56:06;19.10;;;5.07;;
80891;SDS011;70343;51.530;5.050;2023-11-19T01:58:36;9.88;;;4.38;;
80891;SDS011;70343;51.530;5.050;2023-11-19T02:01:02;18.38;;;4.88;;
80891;SDS011;70343;51.530;5.050;2023-11-19T02:03:30;20.73;;;4.85;;
80891;SDS011;70343;51.530;5.050;2023-11-19T02:05:58;20.17;;;6.55;;
80891;SDS011;70343;51.530;5.050;2023-11-19T02:08:24;20.05;;;4.72;;
80891;SDS011;70343;51.530;5.050;2023-11-19T02:10:49;15.95;;;4.63;;
80891;SDS011;70343;51.530;5.050;2023-11-19T02:13:15;20.85;;;5.78;;
80891;SDS011;70343;51.530;5.050;2023-11-19T02:15:41;15.63;;;4.00;;
80891;SDS011;70343;51.530;5.050;2023-11-19T02:20:54;22.23;;;4.30;;
80891;SDS011;70343;51.530;5.050;2023-11-19T02:23:25;16.77;;;4.60;;
80891;SDS011;70343;51.530;5.050;2023-11-19T02:28:41;18.15;;;3.30;;
80891;SDS011;70343;51.530;5.050;2023-11-19T02:31:07;20.15;;;4.57;;
80891;SDS011;70343;51.530;5.050;2023-11-19T02:33:38;29.38;;;5.70;;
80891;SDS011;70343;51.530;5.050;2023-11-19T02:36:04;25.88;;;4.85;;
80891;SDS011;70343;51.530;5.050;2023-11-19T02:38:32;23.30;;;4.65;;
80891;SDS011;70343;51.530;5.050;2023-11-19T02:43:32;23.45;;;3.95;;
80891;SDS011;70343;51.530;5.050;2023-11-19T02:46:04;18.20;;;4.15;;
80891;SDS011;70343;51.530;5.050;2023-11-19T02:48:34;20.33;;;3.70;;
80891;SDS011;70343;51.530;5.050;2023-11-19T02:51:04;29.88;;;4.22;;
80891;SDS011;70343;51.530;5.050;2023-11-19T02:53:30;20.33;;;3.97;;
80891;SDS011;70343;51.530;5.050;2023-11-19T02:55:56;15.98;;;3.22;;
80891;SDS011;70343;51.530;5.050;2023-11-19T02:58:27;28.33;;;4.30;;
80891;SDS011;70343;51.530;5.050;2023-11-19T03:00:54;21.40;;;3.78;;
80891;SDS011;70343;51.530;5.050;2023-11-19T03:03:23;21.27;;;4.25;;
80891;SDS011;70343;51.530;5.050;2023-11-19T03:05:53;22.20;;;4.22;;
80891;SDS011;70343;51.530;5.050;2023-11-19T03:08:20;24.75;;;5.20;;
80891;SDS011;70343;51.530;5.050;2023-11-19T03:10:45;28.75;;;4.75;;
80891;SDS011;70343;51.530;5.050;2023-11-19T03:13:12;17.30;;;3.67;;
80891;SDS011;70343;51.530;5.050;2023-11-19T03:15:42;22.55;;;4.50;;
80891;SDS011;70343;51.530;5.050;2023-11-19T03:18:08;27.33;;;3.92;;
80891;SDS011;70343;51.530;5.050;2023-11-19T03:20:34;20.08;;;2.78;;
80891;SDS011;70343;51.530;5.050;2023-11-19T03:23:00;20.70;;;4.22;;
80891;SDS011;70343;51.530;5.050;2023-11-19T03:25:27;21.00;;;4.07;;
80891;SDS011;70343;51.530;5.050;2023-11-19T03:27:58;27.60;;;4.35;;
80891;SDS011;70343;51.530;5.050;2023-11-19T03:30:24;22.88;;;3.97;;
80891;SDS011;70343;51.530;5.050;2023-11-19T03:32:50;26.58;;;4.68;;
80891;SDS011;70343;51.530;5.050;2023-11-19T03:35:15;24.83;;;4.95;;
80891;SDS011;70343;51.530;5.050;2023-11-19T03:37:41;24.90;;;4.38;;
80891;SDS011;70343;51.530;5.050;2023-11-19T03:40:06;30.65;;;4.15;;
80891;SDS011;70343;51.530;5.050;2023-11-19T03:42:32;34.97;;;5.15;;
80891;SDS011;70343;51.530;5.050;2023-11-19T03:44:58;27.27;;;4.30;;
80891;SDS011;70343;51.530;5.050;2023-11-19T03:47:24;21.60;;;3.83;;
80891;SDS011;70343;51.530;5.050;2023-11-19T03:49:50;25.10;;;3.83;;
80891;SDS011;70343;51.530;5.050;2023-11-19T03:52:16;32.53;;;4.28;;
80891;SDS011;70343;51.530;5.050;2023-11-19T03:54:42;26.92;;;4.68;;
80891;SDS011;70343;51.530;5.050;2023-11-19T03:57:07;20.15;;;4.68;;
80891;SDS011;70343;51.530;5.050;2023-11-19T03:59:35;22.58;;;4.18;;
80891;SDS011;70343;51.530;5.050;2023-11-19T04:02:01;23.48;;;4.25;;
80891;SDS011;70343;51.530;5.050;2023-11-19T04:04:27;20.90;;;4.45;;
80891;SDS011;70343;51.530;5.050;2023-11-19T04:06:54;26.30;;;3.80;;
80891;SDS011;70343;51.530;5.050;2023-11-19T04:09:20;19.52;;;3.70;;
80891;SDS011;70343;51.530;5.050;2023-11-19T04:11:46;27.70;;;5.53;;
80891;SDS011;70343;51.530;5.050;2023-11-19T04:14:12;24.27;;;5.07;;
80891;SDS011;70343;51.530;5.050;2023-11-19T04:16:38;23.92;;;3.30;;
80891;SDS011;70343;51.530;5.050;2023-11-19T04:19:05;26.77;;;4.03;;
80891;SDS011;70343;51.530;5.050;2023-11-19T04:21:31;35.85;;;4.22;;
80891;SDS011;70343;51.530;5.050;2023-11-19T04:23:57;21.92;;;4.82;;
80891;SDS011;70343;51.530;5.050;2023-11-19T04:26:23;29.35;;;5.32;;
80891;SDS011;70343;51.530;5.050;2023-11-19T04:28:48;36.03;;;4.32;;
80891;SDS011;70343;51.530;5.050;2023-11-19T04:31:14;23.27;;;4.65;;
80891;SDS011;70343;51.530;5.050;2023-11-19T04:33:41;33.75;;;5.93;;
80891;SDS011;70343;51.530;5.050;2023-11-19T04:36:07;25.77;;;4.25;;
80891;SDS011;70343;51.530;5.050;2023-11-19T04:38:33;36.90;;;5.78;;
80891;SDS011;70343;51.530;5.050;2023-11-19T04:40:59;32.78;;;4.30;;
80891;SDS011;70343;51.530;5.050;2023-11-19T04:43:25;25.67;;;4.60;;
80891;SDS011;70343;51.530;5.050;2023-11-19T04:45:51;23.02;;;4.18;;
80891;SDS011;70343;51.530;5.050;2023-11-19T04:48:16;27.60;;;5.13;;
80891;SDS011;70343;51.530;5.050;2023-11-19T04:50:42;27.75;;;4.32;;
80891;SDS011;70343;51.530;5.050;2023-11-19T04:53:08;23.42;;;4.63;;
80891;SDS011;70343;51.530;5.050;2023-11-19T04:55:33;21.85;;;3.63;;
80891;SDS011;70343;51.530;5.050;2023-11-19T04:57:59;30.80;;;5.40;;
80891;SDS011;70343;51.530;5.050;2023-11-19T05:00:25;30.92;;;6.20;;
80891;SDS011;70343;51.530;5.050;2023-11-19T05:02:51;29.42;;;4.05;;
80891;SDS011;70343;51.530;5.050;2023-11-19T05:05:16;18.73;;;4.10;;
80891;SDS011;70343;51.530;5.050;2023-11-19T05:07:42;23.35;;;4.63;;
80891;SDS011;70343;51.530;5.050;2023-11-19T05:10:08;25.33;;;4.55;;
80891;SDS011;70343;51.530;5.050;2023-11-19T05:12:34;34.95;;;5.38;;
80891;SDS011;70343;51.530;5.050;2023-11-19T05:14:59;24.98;;;3.63;;
80891;SDS011;70343;51.530;5.050;2023-11-19T05:17:25;30.15;;;4.10;;
80891;SDS011;70343;51.530;5.050;2023-11-19T05:19:51;19.42;;;4.03;;
80891;SDS011;70343;51.530;5.050;2023-11-19T05:22:17;30.10;;;4.40;;
80891;SDS011;70343;51.530;5.050;2023-11-19T05:24:43;24.55;;;3.72;;
80891;SDS011;70343;51.530;5.050;2023-11-19T05:27:08;27.20;;;4.63;;
80891;SDS011;70343;51.530;5.050;2023-11-19T05:29:36;23.65;;;4.68;;
80891;SDS011;70343;51.530;5.050;2023-11-19T05:32:04;26.85;;;3.67;;
80891;SDS011;70343;51.530;5.050;2023-11-19T05:34:30;27.15;;;3.90;;
80891;SDS011;70343;51.530;5.050;2023-11-19T05:36:56;23.27;;;4.63;;
80891;SDS011;70343;51.530;5.050;2023-11-19T05:39:22;25.85;;;3.97;;
80891;SDS011;70343;51.530;5.050;2023-11-19T05:41:48;22.15;;;4.57;;
80891;SDS011;70343;51.530;5.050;2023-11-19T05:44:13;28.85;;;4.30;;
80891;SDS011;70343;51.530;5.050;2023-11-19T05:46:39;24.83;;;3.70;;
80891;SDS011;70343;51.530;5.050;2023-11-19T05:49:07;30.15;;;4.38;;
80891;SDS011;70343;51.530;5.050;2023-11-19T05:51:40;29.27;;;7.57;;
80891;SDS011;70343;51.530;5.050;2023-11-19T05:54:07;26.73;;;4.60;;
80891;SDS011;70343;51.530;5.050;2023-11-19T05:56:33;26.85;;;4.80;;
80891;SDS011;70343;51.530;5.050;2023-11-19T05:58:59;24.65;;;3.78;;
80891;SDS011;70343;51.530;5.050;2023-11-19T06:01:26;27.30;;;3.53;;
80891;SDS011;70343;51.530;5.050;2023-11-19T06:03:52;27.65;;;4.47;;
80891;SDS011;70343;51.530;5.050;2023-11-19T06:06:17;25.33;;;4.28;;
80891;SDS011;70343;51.530;5.050;2023-11-19T06:08:43;21.23;;;4.40;;
80891;SDS011;70343;51.530;5.050;2023-11-19T06:11:10;33.53;;;4.20;;
80891;SDS011;70343;51.530;5.050;2023-11-19T06:13:43;36.90;;;5.35;;
80891;SDS011;70343;51.530;5.050;2023-11-19T06:16:09;35.47;;;5.07;;
80891;SDS011;70343;51.530;5.050;2023-11-19T06:18:36;31.45;;;4.60;;
80891;SDS011;70343;51.530;5.050;2023-11-19T06:21:01;21.52;;;3.95;;
80891;SDS011;70343;51.530;5.050;2023-11-19T06:23:27;29.23;;;4.85;;
80891;SDS011;70343;51.530;5.050;2023-11-19T06:25:53;31.52;;;4.78;;
80891;SDS011;70343;51.530;5.050;2023-11-19T06:28:18;29.25;;;3.97;;
80891;SDS011;70343;51.530;5.050;2023-11-19T06:30:44;32.03;;;5.35;;
80891;SDS011;70343;51.530;5.050;2023-11-19T06:33:12;20.35;;;3.90;;
80891;SDS011;70343;51.530;5.050;2023-11-19T06:35:38;25.25;;;3.85;;
80891;SDS011;70343;51.530;5.050;2023-11-19T06:38:03;28.17;;;5.10;;
80891;SDS011;70343;51.530;5.050;2023-11-19T06:40:32;21.58;;;3.83;;
80891;SDS011;70343;51.530;5.050;2023-11-19T06:43:00;27.75;;;3.65;;
80891;SDS011;70343;51.530;5.050;2023-11-19T06:45:26;32.15;;;4.47;;
80891;SDS011;70343;51.530;5.050;2023-11-19T06:47:51;23.55;;;4.20;;
80891;SDS011;70343;51.530;5.050;2023-11-19T06:50:16;25.50;;;4.03;;
80891;SDS011;70343;51.530;5.050;2023-11-19T06:52:44;23.40;;;3.45;;
80891;SDS011;70343;51.530;5.050;2023-11-19T06:55:10;21.75;;;3.47;;
80891;SDS011;70343;51.530;5.050;2023-11-19T06:57:36;27.35;;;4.60;;
80891;SDS011;70343;51.530;5.050;2023-11-19T07:00:02;23.15;;;4.28;;
80891;SDS011;70343;51.530;5.050;2023-11-19T07:02:28;26.35;;;4.03;;
80891;SDS011;70343;51.530;5.050;2023-11-19T07:04:53;31.88;;;4.35;;
80891;SDS011;70343;51.530;5.050;2023-11-19T07:07:19;23.45;;;4.00;;
80891;SDS011;70343;51.530;5.050;2023-11-19T07:09:45;22.77;;;4.57;;
80891;SDS011;70343;51.530;5.050;2023-11-19T07:12:10;31.02;;;4.10;;
80891;SDS011;70343;51.530;5.050;2023-11-19T07:14:38;29.58;;;4.82;;
80891;SDS011;70343;51.530;5.050;2023-11-19T07:17:04;27.95;;;4.85;;
80891;SDS011;70343;51.530;5.050;2023-11-19T07:19:29;25.17;;;4.45;;
80891;SDS011;70343;51.530;5.050;2023-11-19T07:21:55;19.27;;;3.20;;
80891;SDS011;70343;51.530;5.050;2023-11-19T07:24:21;27.88;;;3.95;;
80891;SDS011;70343;51.530;5.050;2023-11-19T07:26:47;24.13;;;5.45;;
80891;SDS011;70343;51.530;5.050;2023-11-19T07:29:13;29.20;;;4.55;;
80891;SDS011;70343;51.530;5.050;2023-11-19T07:31:42;21.73;;;4.43;;
80891;SDS011;70343;51.530;5.050;2023-11-19T07:34:09;30.55;;;4.68;;
80891;SDS011;70343;51.530;5.050;2023-11-19T07:36:36;19.70;;;3.60;;
80891;SDS011;70343;51.530;5.050;2023-11-19T07:39:03;27.58;;;3.90;;
80891;SDS011;70343;51.530;5.050;2023-11-19T07:41:30;25.55;;;3.60;;
80891;SDS011;70343;51.530;5.050;2023-11-19T07:43:56;29.50;;;3.63;;
80891;SDS011;70343;51.530;5.050;2023-11-19T07:46:21;21.15;;;3.28;;
80891;SDS011;70343;51.530;5.050;2023-11-19T07:48:47;19.75;;;4.10;;
80891;SDS011;70343;51.530;5.050;2023-11-19T07:51:13;22.75;;;3.25;;
80891;SDS011;70343;51.530;5.050;2023-11-19T07:53:39;27.02;;;4.00;;
80891;SDS011;70343;51.530;5.050;2023-11-19T07:56:06;20.95;;;3.92;;
80891;SDS011;70343;51.530;5.050;2023-11-19T07:58:32;28.00;;;4.38;;
80891;SDS011;70343;51.530;5.050;2023-11-19T08:00:57;21.02;;;3.58;;
80891;SDS011;70343;51.530;5.050;2023-11-19T08:03:23;22.58;;;4.75;;
80891;SDS011;70343;51.530;5.050;2023-11-19T08:05:49;28.27;;;4.60;;
80891;SDS011;70343;51.530;5.050;2023-11-19T08:08:14;23.77;;;3.72;;
80891;SDS011;70343;51.530;5.050;2023-11-19T08:10:40;30.20;;;4.60;;
80891;SDS011;70343;51.530;5.050;2023-11-19T08:13:06;22.67;;;3.28;;
80891;SDS011;70343;51.530;5.050;2023-11-19T08:15:32;22.80;;;3.95;;
80891;SDS011;70343;51.530;5.050;2023-11-19T08:17:58;23.02;;;4.40;;
80891;SDS011;70343;51.530;5.050;2023-11-19T08:20:23;24.08;;;4.10;;
80891;SDS011;70343;51.530;5.050;2023-11-19T08:22:49;23.67;;;3.83;;
80891;SDS011;70343;51.530;5.050;2023-11-19T08:25:15;27.45;;;5.03;;
80891;SDS011;70343;51.530;5.050;2023-11-19T08:27:40;25.50;;;4.55;;
80891;SDS011;70343;51.530;5.050;2023-11-19T08:30:06;25.90;;;4.03;;
80891;SDS011;70343;51.530;5.050;2023-11-19T08:32:32;21.05;;;3.45;;
80891;SDS011;70343;51.530;5.050;2023-11-19T08:34:58;21.58;;;3.80;;
80891;SDS011;70343;51.530;5.050;2023-11-19T08:37:24;20.25;;;3.92;;
80891;SDS011;70343;51.530;5.050;2023-11-19T08:39:50;27.13;;;3.90;;
80891;SDS011;70343;51.530;5.050;2023-11-19T08:42:16;37.05;;;4.68;;
80891;SDS011;70343;51.530;5.050;2023-11-19T08:44:41;23.92;;;4.38;;
80891;SDS011;70343;51.530;5.050;2023-11-19T08:47:12;19.38;;;3.85;;
80891;SDS011;70343;51.530;5.050;2023-11-19T08:49:38;20.00;;;3.05;;
80891;SDS011;70343;51.530;5.050;2023-11-19T08:52:04;23.15;;;3.72;;
80891;SDS011;70343;51.530;5.050;2023-11-19T08:54:32;23.67;;;3.50;;
80891;SDS011;70343;51.530;5.050;2023-11-19T08:56:58;20.95;;;3.97;;
80891;SDS011;70343;51.530;5.050;2023-11-19T08:59:24;29.58;;;4.03;;
80891;SDS011;70343;51.530;5.050;2023-11-19T09:01:50;35.25;;;4.55;;
80891;SDS011;70343;51.530;5.050;2023-11-19T09:04:15;22.55;;;3.53;;
80891;SDS011;70343;51.530;5.050;2023-11-19T09:06:41;28.70;;;4.18;;
80891;SDS011;70343;51.530;5.050;2023-11-19T09:09:07;21.95;;;3.33;;
80891;SDS011;70343;51.530;5.050;2023-11-19T09:11:34;23.25;;;3.70;;
80891;SDS011;70343;51.530;5.050;2023-11-19T09:14:00;23.63;;;4.15;;
80891;SDS011;70343;51.530;5.050;2023-11-19T09:16:25;20.38;;;3.45;;
80891;SDS011;70343;51.530;5.050;2023-11-19T09:18:51;26.13;;;3.55;;
80891;SDS011;70343;51.530;5.050;2023-11-19T09:21:16;24.70;;;5.10;;
80891;SDS011;70343;51.530;5.050;2023-11-19T09:23:42;25.85;;;4.80;;
80891;SDS011;70343;51.530;5.050;2023-11-19T09:26:09;20.60;;;3.70;;
80891;SDS011;70343;51.530;5.050;2023-11-19T09:28:37;27.60;;;3.65;;
80891;SDS011;70343;51.530;5.050;2023-11-19T09:31:12;21.27;;;3.88;;
80891;SDS011;70343;51.530;5.050;2023-11-19T09:33:41;22.73;;;4.50;;
80891;SDS011;70343;51.530;5.050;2023-11-19T09:36:07;21.08;;;3.42;;
80891;SDS011;70343;51.530;5.050;2023-11-19T09:38:33;23.05;;;4.57;;
80891;SDS011;70343;51.530;5.050;2023-11-19T09:40:59;30.48;;;4.25;;
80891;SDS011;70343;51.530;5.050;2023-11-19T09:43:27;19.60;;;3.78;;
80891;SDS011;70343;51.530;5.050;2023-11-19T09:45:53;24.45;;;3.67;;
80891;SDS011;70343;51.530;5.050;2023-11-19T09:48:21;21.08;;;3.13;;
80891;SDS011;70343;51.530;5.050;2023-11-19T09:50:49;27.63;;;4.10;;
80891;SDS011;70343;51.530;5.050;2023-11-19T09:53:15;26.70;;;4.28;;
80891;SDS011;70343;51.530;5.050;2023-11-19T09:55:41;25.00;;;4.15;;
80891;SDS011;70343;51.530;5.050;2023-11-19T09:58:07;17.88;;;3.22;;
80891;SDS011;70343;51.530;5.050;2023-11-19T10:00:34;20.10;;;4.18;;
80891;SDS011;70343;51.530;5.050;2023-11-19T10:03:00;25.92;;;4.82;;
80891;SDS011;70343;51.530;5.050;2023-11-19T10:05:27;23.10;;;3.90;;
80891;SDS011;70343;51.530;5.050;2023-11-19T10:07:52;20.95;;;3.75;;
80891;SDS011;70343;51.530;5.050;2023-11-19T10:10:20;21.98;;;3.95;;
80891;SDS011;70343;51.530;5.050;2023-11-19T10:12:46;25.70;;;4.55;;
80891;SDS011;70343;51.530;5.050;2023-11-19T10:15:19;27.77;;;3.45;;
80891;SDS011;70343;51.530;5.050;2023-11-19T10:17:47;26.20;;;4.43;;
80891;SDS011;70343;51.530;5.050;2023-11-19T10:20:13;18.90;;;3.05;;
80891;SDS011;70343;51.530;5.050;2023-11-19T10:22:38;20.15;;;3.38;;
80891;SDS011;70343;51.530;5.050;2023-11-19T10:25:26;18.58;;;3.38;;
80891;SDS011;70343;51.530;5.050;2023-11-19T10:27:54;19.00;;;3.17;;
80891;SDS011;70343;51.530;5.050;2023-11-19T10:30:20;22.08;;;3.70;;
80891;SDS011;70343;51.530;5.050;2023-11-19T10:33:07;19.45;;;3.60;;
80891;SDS011;70343;51.530;5.050;2023-11-19T10:35:34;20.40;;;3.55;;
80891;SDS011;70343;51.530;5.050;2023-11-19T10:38:01;21.27;;;3.53;;
80891;SDS011;70343;51.530;5.050;2023-11-19T10:40:39;28.75;;;4.32;;
80891;SDS011;70343;51.530;5.050;2023-11-19T10:43:05;19.90;;;3.17;;
80891;SDS011;70343;51.530;5.050;2023-11-19T10:45:33;26.23;;;4.55;;
80891;SDS011;70343;51.530;5.050;2023-11-19T10:47:59;21.98;;;3.85;;
80891;SDS011;70343;51.530;5.050;2023-11-19T10:50:25;24.90;;;3.33;;
80891;SDS011;70343;51.530;5.050;2023-11-19T10:52:55;18.98;;;2.97;;
80891;SDS011;70343;51.530;5.050;2023-11-19T10:55:32;21.45;;;3.65;;
80891;SDS011;70343;51.530;5.050;2023-11-19T10:58:03;23.95;;;3.78;;
80891;SDS011;70343;51.530;5.050;2023-11-19T11:00:34;20.35;;;3.60;;
80891;SDS011;70343;51.530;5.050;2023-11-19T11:03:16;29.67;;;4.75;;
80891;SDS011;70343;51.530;5.050;2023-11-19T11:05:43;22.63;;;3.35;;
80891;SDS011;70343;51.530;5.050;2023-11-19T11:08:12;22.15;;;4.22;;
80891;SDS011;70343;51.530;5.050;2023-11-19T11:10:46;20.95;;;3.05;;
80891;SDS011;70343;51.530;5.050;2023-11-19T11:13:16;17.88;;;4.93;;
80891;SDS011;70343;51.530;5.050;2023-11-19T11:15:43;20.15;;;3.17;;
80891;SDS011;70343;51.530;5.050;2023-11-19T11:18:12;22.30;;;3.60;;
80891;SDS011;70343;51.530;5.050;2023-11-19T11:20:38;22.20;;;3.65;;
80891;SDS011;70343;51.530;5.050;2023-11-19T11:23:13;17.48;;;3.67;;
80891;SDS011;70343;51.530;5.050;2023-11-19T11:34:38;20.85;;;3.70;;
80891;SDS011;70343;51.530;5.050;2023-11-19T11:39:41;18.02;;;3.83;;
80891;SDS011;70343;51.530;5.050;2023-11-19T11:45:00;20.35;;;3.38;;
80891;SDS011;70343;51.530;5.050;2023-11-19T11:47:49;16.42;;;3.00;;
80891;SDS011;70343;51.530;5.050;2023-11-19T11:50:21;14.00;;;2.80;;
80891;SDS011;70343;51.530;5.050;2023-11-19T11:57:57;12.65;;;3.15;;
80891;SDS011;70343;51.530;5.050;2023-11-19T12:03:04;23.23;;;3.75;;
80891;SDS011;70343;51.530;5.050;2023-11-19T12:05:30;20.65;;;4.35;;
80891;SDS011;70343;51.530;5.050;2023-11-19T12:08:00;18.30;;;2.90;;
80891;SDS011;70343;51.530;5.050;2023-11-19T12:10:30;22.67;;;3.42;;
80891;SDS011;70343;51.530;5.050;2023-11-19T12:12:59;23.30;;;3.42;;
80891;SDS011;70343;51.530;5.050;2023-11-19T12:15:26;17.92;;;3.15;;
80891;SDS011;70343;51.530;5.050;2023-11-19T12:17:53;14.60;;;3.30;;
80891;SDS011;70343;51.530;5.050;2023-11-19T12:20:26;13.65;;;3.13;;
80891;SDS011;70343;51.530;5.050;2023-11-19T12:22:52;16.15;;;3.47;;
80891;SDS011;70343;51.530;5.050;2023-11-19T12:25:18;17.92;;;3.42;;
80891;SDS011;70343;51.530;5.050;2023-11-19T12:27:51;19.85;;;3.63;;
80891;SDS011;70343;51.530;5.050;2023-11-19T12:30:21;16.52;;;3.50;;
80891;SDS011;70343;51.530;5.050;2023-11-19T12:32:49;16.52;;;3.05;;
80891;SDS011;70343;51.530;5.050;2023-11-19T12:35:14;19.95;;;3.22;;
80891;SDS011;70343;51.530;5.050;2023-11-19T12:42:51;16.20;;;3.13;;
80891;SDS011;70343;51.530;5.050;2023-11-19T12:45:18;18.52;;;3.95;;
80891;SDS011;70343;51.530;5.050;2023-11-19T12:47:46;22.92;;;3.78;;
80891;SDS011;70343;51.530;5.050;2023-11-19T12:50:13;23.60;;;3.45;;
80891;SDS011;70343;51.530;5.050;2023-11-19T12:52:39;15.95;;;2.75;;
80891;SDS011;70343;51.530;5.050;2023-11-19T12:55:05;22.25;;;3.45;;
80891;SDS011;70343;51.530;5.050;2023-11-19T12:57:52;20.85;;;2.80;;
80891;SDS011;70343;51.530;5.050;2023-11-19T13:00:20;18.48;;;3.17;;
80891;SDS011;70343;51.530;5.050;2023-11-19T13:02:50;21.48;;;4.43;;
80891;SDS011;70343;51.530;5.050;2023-11-19T13:05:26;13.52;;;2.90;;
80891;SDS011;70343;51.530;5.050;2023-11-19T13:08:08;21.00;;;3.53;;
80891;SDS011;70343;51.530;5.050;2023-11-19T13:13:21;17.98;;;3.17;;
80891;SDS011;70343;51.530;5.050;2023-11-19T13:15:47;13.82;;;3.00;;
80891;SDS011;70343;51.530;5.050;2023-11-19T13:18:15;13.50;;;2.42;;
80891;SDS011;70343;51.530;5.050;2023-11-19T13:20:41;14.50;;;2.63;;
80891;SDS011;70343;51.530;5.050;2023-11-19T13:23:07;16.33;;;2.88;;
80891;SDS011;70343;51.530;5.050;2023-11-19T13:25:32;16.55;;;2.85;;
80891;SDS011;70343;51.530;5.050;2023-11-19T13:27:58;15.38;;;3.85;;
80891;SDS011;70343;51.530;5.050;2023-11-19T13:30:25;15.27;;;3.40;;
80891;SDS011;70343;51.530;5.050;2023-11-19T13:32:51;17.52;;;3.17;;
80891;SDS011;70343;51.530;5.050;2023-11-19T13:35:17;14.95;;;2.78;;
80891;SDS011;70343;51.530;5.050;2023-11-19T13:37:46;15.68;;;3.25;;
80891;SDS011;70343;51.530;5.050;2023-11-19T13:40:12;15.73;;;2.35;;
80891;SDS011;70343;51.530;5.050;2023-11-19T13:42:40;16.98;;;3.97;;
80891;SDS011;70343;51.530;5.050;2023-11-19T13:45:09;17.33;;;2.88;;
80891;SDS011;70343;51.530;5.050;2023-11-19T13:47:40;16.20;;;2.90;;
80891;SDS011;70343;51.530;5.050;2023-11-19T13:50:10;21.27;;;3.20;;
80891;SDS011;70343;51.530;5.050;2023-11-19T13:52:37;15.15;;;3.00;;
80891;SDS011;70343;51.530;5.050;2023-11-19T13:55:07;14.55;;;2.58;;
80891;SDS011;70343;51.530;5.050;2023-11-19T13:57:34;14.00;;;3.70;;
80891;SDS011;70343;51.530;5.050;2023-11-19T14:00:03;16.00;;;2.33;;
80891;SDS011;70343;51.530;5.050;2023-11-19T14:02:36;14.35;;;2.90;;
80891;SDS011;70343;51.530;5.050;2023-11-19T14:05:02;16.90;;;3.08;;
80891;SDS011;70343;51.530;5.050;2023-11-19T14:07:27;16.63;;;3.17;;
80891;SDS011;70343;51.530;5.050;2023-11-19T14:09:53;14.85;;;3.35;;
80891;SDS011;70343;51.530;5.050;2023-11-19T14:12:19;11.18;;;2.63;;
80891;SDS011;70343;51.530;5.050;2023-11-19T14:14:45;12.18;;;2.90;;
80891;SDS011;70343;51.530;5.050;2023-11-19T14:17:11;24.02;;;3.97;;
80891;SDS011;70343;51.530;5.050;2023-11-19T14:19:37;12.55;;;3.33;;
80891;SDS011;70343;51.530;5.050;2023-11-19T14:22:04;14.93;;;3.72;;
80891;SDS011;70343;51.530;5.050;2023-11-19T14:24:30;12.10;;;3.50;;
80891;SDS011;70343;51.530;5.050;2023-11-19T14:26:55;15.45;;;3.85;;
80891;SDS011;70343;51.530;5.050;2023-11-19T14:29:24;10.32;;;2.45;;
80891;SDS011;70343;51.530;5.050;2023-11-19T14:31:51;10.40;;;2.92;;
80891;SDS011;70343;51.530;5.050;2023-11-19T14:34:17;12.27;;;3.40;;
80891;SDS011;70343;51.530;5.050;2023-11-19T14:36:44;12.90;;;2.90;;
80891;SDS011;70343;51.530;5.050;2023-11-19T14:39:10;13.57;;;2.78;;
80891;SDS011;70343;51.530;5.050;2023-11-19T14:41:36;16.58;;;3.20;;
80891;SDS011;70343;51.530;5.050;2023-11-19T14:44:01;12.90;;;2.63;;
80891;SDS011;70343;51.530;5.050;2023-11-19T14:46:28;15.38;;;3.33;;
80891;SDS011;70343;51.530;5.050;2023-11-19T14:48:54;14.63;;;3.13;;
80891;SDS011;70343;51.530;5.050;2023-11-19T14:51:19;16.17;;;2.95;;
80891;SDS011;70343;51.530;5.050;2023-11-19T14:53:46;22.85;;;3.53;;
80891;SDS011;70343;51.530;5.050;2023-11-19T14:56:12;16.02;;;3.15;;
80891;SDS011;70343;51.530;5.050;2023-11-19T14:58:38;15.10;;;3.28;;
80891;SDS011;70343;51.530;5.050;2023-11-19T15:01:04;21.15;;;3.45;;
80891;SDS011;70343;51.530;5.050;2023-11-19T15:03:30;15.75;;;3.55;;
80891;SDS011;70343;51.530;5.050;2023-11-19T15:05:56;12.60;;;3.05;;
80891;SDS011;70343;51.530;5.050;2023-11-19T15:08:22;16.27;;;3.38;;
80891;SDS011;70343;51.530;5.050;2023-11-19T15:10:47;17.60;;;2.97;;